createdAt,value
2023-09-15T00:00:27.359Z,60.60
2023-09-15T00:02:56.569Z,60.08
2023-09-15T00:05:29.517Z,59.99
2023-09-15T00:08:01.276Z,59.93
2023-09-15T00:10:28.116Z,60.02
2023-09-15T00:12:54.969Z,60.16
2023-09-15T00:15:21.967Z,60.23
2023-09-15T00:17:49.350Z,60.36
2023-09-15T00:20:17.824Z,60.57
2023-09-15T00:22:50.721Z,60.14
2023-09-15T00:25:27.094Z,60.60
2023-09-15T00:27:58.143Z,60.58
2023-09-15T00:30:26.553Z,60.27
2023-09-15T00:32:53.945Z,60.50
2023-09-15T00:35:25.240Z,60.60
2023-09-15T00:37:53.098Z,60.29
2023-09-15T00:40:21.665Z,60.66
2023-09-15T00:42:50.683Z,60.53
2023-09-15T00:45:20.684Z,60.44
2023-09-15T00:47:51.786Z,60.91
2023-09-15T00:50:23.008Z,60.84
2023-09-15T00:53:13.838Z,60.38
2023-09-15T00:55:42.700Z,60.25
2023-09-15T00:58:13.260Z,60.40
2023-09-15T01:00:43.579Z,60.38
2023-09-15T01:03:12.481Z,60.33
2023-09-15T01:05:41.981Z,60.43
2023-09-15T01:08:08.633Z,60.26
2023-09-15T01:10:35.575Z,60.46
2023-09-15T01:13:02.357Z,60.32
2023-09-15T01:15:55.501Z,60.49
2023-09-15T01:18:51.007Z,60.60
2023-09-15T01:21:55.981Z,60.51
2023-09-15T01:24:22.459Z,60.99
2023-09-15T01:27:04.285Z,60.47
2023-09-15T01:29:47.277Z,60.29
2023-09-15T01:32:15.770Z,60.31
2023-09-15T01:34:49.341Z,60.27
2023-09-15T01:37:16.238Z,60.40
2023-09-15T01:39:43.758Z,60.41
2023-09-15T01:42:10.746Z,60.28
2023-09-15T01:44:37.528Z,60.26
2023-09-15T01:47:07.477Z,60.27
2023-09-15T01:49:34.681Z,60.58
2023-09-15T01:52:02.550Z,60.25
2023-09-15T01:54:29.223Z,60.51
2023-09-15T01:56:55.917Z,60.64
2023-09-15T01:59:22.555Z,60.43
2023-09-15T02:01:49.215Z,60.88
2023-09-15T02:04:15.989Z,60.52
2023-09-15T02:06:42.579Z,60.54
2023-09-15T02:09:09.608Z,60.85
2023-09-15T02:11:36.204Z,60.54
2023-09-15T02:14:02.780Z,60.70
2023-09-15T02:16:29.496Z,60.72
2023-09-15T02:18:56.214Z,60.82
2023-09-15T02:21:22.848Z,60.61
2023-09-15T02:23:49.544Z,60.95
2023-09-15T02:26:16.128Z,60.66
2023-09-15T02:28:42.804Z,60.66
2023-09-15T02:31:09.648Z,61.03
2023-09-15T02:33:36.561Z,60.66
2023-09-15T02:36:05.218Z,60.82
2023-09-15T02:38:31.916Z,60.66
2023-09-15T02:40:58.452Z,60.87
2023-09-15T02:43:25.093Z,60.81
2023-09-15T02:45:51.988Z,60.72
2023-09-15T02:48:18.663Z,60.71
2023-09-15T02:50:46.561Z,60.73
2023-09-15T02:53:14.399Z,60.68
2023-09-15T02:55:40.953Z,60.93
2023-09-15T02:58:07.679Z,61.05
2023-09-15T03:00:34.531Z,60.68
2023-09-15T03:03:01.449Z,60.81
2023-09-15T03:05:28.118Z,60.91
2023-09-15T03:07:55.193Z,60.98
2023-09-15T03:10:21.786Z,61.13
2023-09-15T03:12:49.053Z,61.00
2023-09-15T03:15:17.155Z,61.13
2023-09-15T03:17:43.920Z,60.95
2023-09-15T03:20:17.338Z,60.85
2023-09-15T03:22:44.838Z,60.56
2023-09-15T03:25:12.266Z,60.74
2023-09-15T03:27:39.027Z,60.81
2023-09-15T03:30:07.615Z,60.75
2023-09-15T03:32:35.011Z,60.78
2023-09-15T03:35:01.912Z,60.55
2023-09-15T03:37:28.493Z,60.79
2023-09-15T03:39:55.307Z,60.54
2023-09-15T03:42:22.123Z,60.70
2023-09-15T03:44:48.651Z,60.77
2023-09-15T03:47:15.300Z,60.54
2023-09-15T03:49:41.904Z,60.60
2023-09-15T03:52:08.696Z,60.44
2023-09-15T03:54:35.421Z,60.32
2023-09-15T03:57:01.951Z,60.65
2023-09-15T03:59:28.597Z,60.36
2023-09-15T04:01:55.480Z,60.46
2023-09-15T04:04:22.355Z,60.66
2023-09-15T04:06:49.153Z,60.37
2023-09-15T04:09:15.785Z,60.67
2023-09-15T04:11:42.777Z,60.47
2023-09-15T04:14:09.303Z,60.69
2023-09-15T04:16:38.945Z,60.52
2023-09-15T04:19:05.799Z,60.85
2023-09-15T04:21:32.449Z,60.58
2023-09-15T04:23:59.164Z,60.42
2023-09-15T04:26:25.822Z,60.57
2023-09-15T04:28:52.393Z,60.33
2023-09-15T04:31:19.149Z,60.58
2023-09-15T04:33:46.725Z,60.71
2023-09-15T04:36:13.649Z,60.47
2023-09-15T04:38:40.401Z,60.71
2023-09-15T04:41:07.387Z,60.66
2023-09-15T04:43:33.993Z,60.78
2023-09-15T04:46:00.958Z,60.64
2023-09-15T04:48:27.661Z,60.90
2023-09-15T04:50:54.411Z,60.69
2023-09-15T04:53:21.779Z,60.47
2023-09-15T04:55:52.034Z,60.49
2023-09-15T04:58:18.754Z,60.43
2023-09-15T05:00:52.311Z,60.95
2023-09-15T05:03:19.095Z,60.78
2023-09-15T05:05:46.714Z,60.58
2023-09-15T05:08:13.534Z,60.64
2023-09-15T05:10:40.637Z,60.58
2023-09-15T05:13:07.290Z,60.92
2023-09-15T05:15:35.452Z,60.92
2023-09-15T05:18:02.300Z,60.84
2023-09-15T05:20:28.978Z,60.80
2023-09-15T05:22:55.619Z,60.88
2023-09-15T05:25:22.456Z,60.74
2023-09-15T05:27:49.140Z,60.85
2023-09-15T05:30:17.889Z,60.93
2023-09-15T05:32:44.887Z,61.08
2023-09-15T05:35:11.844Z,60.71
2023-09-15T05:37:38.817Z,61.41
2023-09-15T05:40:06.487Z,62.13
2023-09-15T05:42:33.230Z,61.98
2023-09-15T05:45:00.379Z,62.08
2023-09-15T05:47:28.332Z,62.07
2023-09-15T05:49:54.982Z,62.21
2023-09-15T05:52:21.708Z,62.09
2023-09-15T05:54:48.836Z,62.03
2023-09-15T05:57:15.493Z,61.90
2023-09-15T05:59:42.102Z,61.79
2023-09-15T06:02:08.778Z,62.00
2023-09-15T06:04:35.976Z,61.73
2023-09-15T06:07:02.862Z,61.93
2023-09-15T06:09:29.557Z,61.87
2023-09-15T06:11:56.331Z,61.73
2023-09-15T06:14:22.914Z,61.77
2023-09-15T06:16:49.753Z,61.84
2023-09-15T06:19:16.469Z,61.84
2023-09-15T06:21:43.125Z,61.66
2023-09-15T06:24:09.733Z,61.63
2023-09-15T06:26:37.892Z,62.04
2023-09-15T06:29:04.683Z,61.51
2023-09-15T06:31:31.645Z,61.62
2023-09-15T06:33:58.652Z,61.59
2023-09-15T06:36:27.678Z,61.90
2023-09-15T06:38:54.528Z,61.82
2023-09-15T06:41:21.636Z,61.67
2023-09-15T06:43:48.197Z,61.81
2023-09-15T06:46:19.989Z,61.59
2023-09-15T06:48:47.603Z,61.63
2023-09-15T06:51:14.515Z,61.82
2023-09-15T06:53:41.218Z,61.88
2023-09-15T06:56:08.222Z,61.64
2023-09-15T06:58:35.207Z,61.63
2023-09-15T07:01:05.000Z,61.77
2023-09-15T07:03:32.606Z,61.82
2023-09-15T07:05:59.802Z,61.81
2023-09-15T07:08:26.613Z,61.81
2023-09-15T07:10:53.879Z,61.86
2023-09-15T07:13:20.860Z,62.12
2023-09-15T07:15:48.866Z,61.69
2023-09-15T07:18:16.526Z,61.97
2023-09-15T07:20:43.684Z,61.87
2023-09-15T07:23:11.466Z,61.79
2023-09-15T07:25:38.621Z,62.14
2023-09-15T07:28:06.531Z,62.07
2023-09-15T07:30:33.444Z,62.37
2023-09-15T07:33:02.466Z,62.23
2023-09-15T07:35:29.591Z,62.29
2023-09-15T07:37:56.739Z,62.17
2023-09-15T07:40:25.678Z,62.25
2023-09-15T07:42:52.764Z,62.14
2023-09-15T07:45:19.685Z,62.26
2023-09-15T07:47:46.594Z,62.48
2023-09-15T07:50:14.697Z,62.40
2023-09-15T07:52:42.329Z,62.67
2023-09-15T07:55:09.165Z,62.32
2023-09-15T07:57:38.635Z,62.80
2023-09-15T08:00:08.083Z,62.57
2023-09-15T08:02:37.736Z,62.61
2023-09-15T08:05:06.373Z,62.62
2023-09-15T08:07:33.297Z,62.33
2023-09-15T08:10:02.380Z,62.71
2023-09-15T08:12:29.655Z,62.42
2023-09-15T08:14:58.770Z,62.46
2023-09-15T08:17:33.296Z,62.41
2023-09-15T08:20:02.610Z,62.59
2023-09-15T08:22:30.046Z,62.63
2023-09-15T08:24:57.315Z,62.33
2023-09-15T08:27:27.323Z,62.38
2023-09-15T08:29:54.443Z,62.28
2023-09-15T08:32:21.454Z,62.24
2023-09-15T08:34:48.460Z,62.06
2023-09-15T08:37:16.685Z,62.01
2023-09-15T08:39:46.247Z,62.03
2023-09-15T08:42:32.261Z,61.61
2023-09-15T08:45:00.898Z,61.57
2023-09-15T08:47:33.437Z,61.46
2023-09-15T08:50:07.467Z,61.31
2023-09-15T08:52:37.464Z,61.12
2023-09-15T08:55:09.245Z,60.84
2023-09-15T08:57:43.204Z,60.65
2023-09-15T09:00:14.655Z,60.56
2023-09-15T09:02:44.795Z,60.53
2023-09-15T09:05:14.840Z,60.44
2023-09-15T09:07:42.278Z,60.49
2023-09-15T09:10:09.943Z,60.09
2023-09-15T09:12:39.387Z,59.78
2023-09-15T09:15:08.673Z,59.61
2023-09-15T09:17:35.380Z,59.30
2023-09-15T09:20:02.380Z,59.23
2023-09-15T09:22:29.483Z,59.28
2023-09-15T09:24:59.541Z,58.93
2023-09-15T09:27:35.647Z,58.90
2023-09-15T09:30:03.229Z,58.58
2023-09-15T09:32:30.436Z,58.33
2023-09-15T09:34:57.405Z,58.58
2023-09-15T09:37:27.795Z,58.23
2023-09-15T09:39:55.288Z,58.35
2023-09-15T09:42:26.711Z,58.20
2023-09-15T09:44:54.478Z,58.11
2023-09-15T09:47:26.568Z,58.13
2023-09-15T09:49:56.474Z,58.07
2023-09-15T09:52:25.748Z,57.90
2023-09-15T09:54:53.410Z,57.50
2023-09-15T09:57:21.184Z,57.34
2023-09-15T09:59:48.746Z,57.45
2023-09-15T10:02:19.298Z,57.32
2023-09-15T10:04:46.937Z,57.24
2023-09-15T10:07:16.977Z,57.15
2023-09-15T10:09:50.718Z,57.01
2023-09-15T10:12:18.029Z,56.65
2023-09-15T10:14:48.692Z,56.79
2023-09-15T10:17:16.510Z,57.08
2023-09-15T10:19:44.178Z,56.68
2023-09-15T10:22:12.142Z,56.83
2023-09-15T10:24:44.625Z,56.76
2023-09-15T10:27:12.816Z,56.44
2023-09-15T10:29:43.380Z,55.98
2023-09-15T10:32:20.312Z,55.83
2023-09-15T10:34:50.584Z,56.00
2023-09-15T10:37:19.656Z,55.64
2023-09-15T10:46:46.789Z,55.36
2023-09-15T10:49:21.908Z,55.01
2023-09-15T10:52:02.858Z,54.95
2023-09-15T10:54:36.160Z,54.96
2023-09-15T10:57:06.041Z,54.65
2023-09-15T10:59:34.202Z,54.04
2023-09-15T11:02:04.140Z,54.14
2023-09-15T11:04:33.382Z,53.82
2023-09-15T11:07:14.124Z,53.42
2023-09-15T11:09:53.650Z,53.22
2023-09-15T11:12:44.348Z,52.86
2023-09-15T11:15:20.053Z,52.54
2023-09-15T11:17:53.598Z,52.34
2023-09-15T11:20:23.266Z,51.86
2023-09-15T11:22:59.279Z,51.60
2023-09-15T11:25:34.329Z,51.26
2023-09-15T11:28:10.847Z,50.84
2023-09-15T11:30:41.633Z,49.99
2023-09-15T11:33:19.724Z,48.47
2023-09-15T11:35:56.052Z,46.75
2023-09-15T11:38:28.625Z,45.18
2023-09-15T11:40:59.792Z,44.25
2023-09-15T11:43:32.734Z,43.46
2023-09-15T11:46:05.834Z,42.57
2023-09-15T11:51:50.512Z,41.85
2023-09-15T11:54:29.862Z,40.69
2023-09-15T11:57:08.731Z,40.59
2023-09-15T11:59:45.193Z,40.60
2023-09-15T12:02:25.663Z,40.52
2023-09-15T12:04:55.562Z,40.43
2023-09-15T12:07:36.603Z,41.21
2023-09-15T12:10:14.819Z,42.14
2023-09-15T12:12:51.678Z,42.91
2023-09-15T12:15:30.791Z,44.04
2023-09-15T12:18:07.183Z,44.82
2023-09-15T12:20:44.897Z,45.71
2023-09-15T12:23:17.914Z,46.27
2023-09-15T12:25:47.988Z,47.01
2023-09-15T12:28:26.051Z,47.13
2023-09-15T12:30:56.049Z,47.46
2023-09-15T12:33:28.504Z,47.83
2023-09-15T12:35:55.958Z,48.14
2023-09-15T12:38:23.156Z,48.46
2023-09-15T12:40:53.934Z,48.86
2023-09-15T12:43:30.948Z,48.54
2023-09-15T12:45:58.110Z,48.92
2023-09-15T12:48:31.382Z,49.18
2023-09-15T12:50:59.263Z,48.95
2023-09-15T12:53:31.644Z,48.95
2023-09-15T12:56:01.779Z,48.87
2023-09-15T12:58:28.991Z,49.18
2023-09-15T13:00:58.219Z,49.07
2023-09-15T13:03:29.605Z,49.32
2023-09-15T13:05:57.317Z,49.35
2023-09-15T13:08:24.506Z,49.25
2023-09-15T13:10:56.251Z,49.47
2023-09-15T13:13:25.722Z,49.38
2023-09-15T13:15:53.471Z,49.67
2023-09-15T13:18:25.016Z,49.73
2023-09-15T13:20:58.382Z,49.31
2023-09-15T13:23:30.856Z,49.54
2023-09-15T13:25:58.406Z,49.56
2023-09-15T13:28:29.416Z,49.57
2023-09-15T13:30:59.766Z,49.80
2023-09-15T13:33:36.773Z,49.55
2023-09-15T13:36:10.939Z,49.73
2023-09-15T13:38:45.162Z,49.55
2023-09-15T13:41:20.179Z,49.42
2023-09-15T13:43:47.738Z,49.30
2023-09-15T13:46:18.297Z,49.60
2023-09-15T13:48:48.178Z,49.48
2023-09-15T13:51:28.946Z,49.31
2023-09-15T13:54:00.282Z,49.09
2023-09-15T13:56:30.289Z,48.54
2023-09-15T13:59:11.293Z,49.35
2023-09-15T14:01:43.832Z,49.57
2023-09-15T14:04:24.163Z,49.49
2023-09-15T14:06:59.736Z,48.97
2023-09-15T14:09:27.345Z,49.23
2023-09-15T14:11:57.750Z,49.06
2023-09-15T14:14:34.930Z,48.78
2023-09-15T14:17:02.603Z,49.55
2023-09-15T14:19:33.230Z,48.82
2023-09-15T14:22:03.707Z,49.03
2023-09-15T14:24:39.331Z,49.08
2023-09-15T14:27:10.072Z,49.68
2023-09-15T14:29:39.991Z,49.46
2023-09-15T14:32:31.909Z,50.15
2023-09-15T14:35:06.449Z,50.36
2023-09-15T14:37:37.991Z,50.18
2023-09-15T14:40:11.283Z,50.81
2023-09-15T14:42:50.114Z,50.11
2023-09-15T14:45:20.050Z,50.38
2023-09-15T14:47:50.660Z,50.04
2023-09-15T14:50:18.232Z,50.57
2023-09-15T14:52:47.755Z,50.69
2023-09-15T14:55:19.347Z,50.47
2023-09-15T14:57:56.152Z,50.71
2023-09-15T15:00:27.203Z,49.96
2023-09-15T15:02:59.861Z,50.41
2023-09-15T15:05:30.242Z,50.01
2023-09-15T15:08:07.959Z,50.22
2023-09-15T15:10:40.658Z,50.82
2023-09-15T15:13:16.942Z,50.42
2023-09-15T15:15:45.838Z,50.62
2023-09-15T15:18:18.318Z,50.89
2023-09-15T15:20:52.634Z,50.95
2023-09-15T15:23:27.496Z,50.83
2023-09-15T15:25:55.613Z,50.53
2023-09-15T15:28:23.436Z,50.92
2023-09-15T15:30:50.800Z,50.86
2023-09-15T15:33:18.763Z,50.88
2023-09-15T15:35:46.014Z,50.83
2023-09-15T15:38:12.981Z,51.04
2023-09-15T15:40:41.717Z,50.79
2023-09-15T15:43:08.943Z,50.88
2023-09-15T15:45:38.944Z,51.32
2023-09-15T15:48:14.409Z,50.64
2023-09-15T15:50:46.323Z,50.46
2023-09-15T15:53:20.949Z,51.05
2023-09-15T15:55:54.140Z,51.37
2023-09-15T15:58:21.226Z,51.52
2023-09-15T16:00:51.352Z,51.79
2023-09-15T16:03:26.207Z,51.02
2023-09-15T16:05:59.890Z,51.39
2023-09-15T16:08:34.738Z,51.00
2023-09-15T16:11:07.447Z,51.37
2023-09-15T16:13:38.403Z,50.90
2023-09-15T16:16:10.373Z,51.65
2023-09-15T16:18:38.066Z,51.82
2023-09-15T16:21:08.813Z,51.25
2023-09-15T16:23:43.099Z,52.02
2023-09-15T16:26:10.652Z,51.81
2023-09-15T16:28:40.658Z,52.82
2023-09-15T16:31:11.086Z,52.93
2023-09-15T16:33:40.852Z,53.21
2023-09-15T16:36:22.314Z,53.59
2023-09-15T16:38:58.596Z,53.50
2023-09-15T16:41:32.463Z,54.25
2023-09-15T16:44:07.092Z,54.21
2023-09-15T16:47:23.752Z,53.07
2023-09-15T16:52:42.318Z,53.56
2023-09-15T16:55:19.104Z,52.54
2023-09-15T16:57:48.520Z,52.43
2023-09-15T17:00:31.688Z,52.56
2023-09-15T17:02:58.284Z,53.71
2023-09-15T17:05:24.872Z,53.55
2023-09-15T17:07:51.483Z,53.82
2023-09-15T17:10:18.112Z,53.14
2023-09-15T17:12:44.947Z,53.67
2023-09-15T17:15:12.571Z,53.80
2023-09-15T17:17:41.272Z,53.70
2023-09-15T17:20:11.695Z,53.71
2023-09-15T17:22:38.317Z,53.81
2023-09-15T17:25:05.203Z,53.97
2023-09-15T17:27:31.962Z,54.24
2023-09-15T17:29:58.694Z,54.26
2023-09-15T17:32:25.312Z,54.59
2023-09-15T17:34:52.606Z,54.44
2023-09-15T17:37:19.155Z,54.36
2023-09-15T17:39:50.191Z,54.46
2023-09-15T17:42:20.259Z,54.45
2023-09-15T17:44:47.016Z,53.84
2023-09-15T17:47:13.649Z,54.28
2023-09-15T17:49:42.924Z,54.53
2023-09-15T17:52:10.896Z,54.59
2023-09-15T17:54:37.717Z,54.84
2023-09-15T17:57:04.634Z,55.18
2023-09-15T17:59:31.275Z,55.02
2023-09-15T18:01:57.741Z,55.44
2023-09-15T18:04:24.351Z,55.77
2023-09-15T18:06:51.017Z,55.74
2023-09-15T18:09:17.780Z,56.50
2023-09-15T18:11:44.368Z,56.23
2023-09-15T18:14:10.932Z,56.94
2023-09-15T18:16:37.546Z,57.40
2023-09-15T18:19:07.159Z,57.49
2023-09-15T18:21:33.830Z,57.77
2023-09-15T18:24:00.418Z,58.05
2023-09-15T18:26:27.027Z,58.23
2023-09-15T18:28:53.673Z,58.66
2023-09-15T18:31:20.215Z,58.86
2023-09-15T18:33:48.385Z,59.20
2023-09-15T18:36:15.258Z,59.06
2023-09-15T18:38:41.871Z,59.86
2023-09-15T18:41:08.549Z,59.55
2023-09-15T18:43:35.130Z,59.50
2023-09-15T18:46:01.925Z,59.48
2023-09-15T18:48:28.578Z,59.77
2023-09-15T18:50:55.180Z,59.99
2023-09-15T18:53:22.119Z,59.81
2023-09-15T18:55:48.717Z,59.71
2023-09-15T18:58:15.326Z,60.01
2023-09-15T19:00:42.379Z,59.98
2023-09-15T19:03:11.178Z,60.00
2023-09-15T19:05:37.906Z,60.27
2023-09-15T19:08:04.991Z,60.19
2023-09-15T19:10:32.729Z,60.16
2023-09-15T19:12:59.827Z,60.08
2023-09-15T19:15:27.351Z,60.26
2023-09-15T19:17:55.504Z,60.22
2023-09-15T19:20:22.156Z,60.24
2023-09-15T19:22:48.644Z,60.06
2023-09-15T19:25:15.359Z,59.90
2023-09-15T19:27:41.942Z,60.00
2023-09-15T19:30:09.069Z,59.77
2023-09-15T19:32:35.922Z,60.07
2023-09-15T19:35:02.527Z,59.75
2023-09-15T19:37:29.155Z,59.79
2023-09-15T19:39:55.860Z,60.05
2023-09-15T19:42:23.430Z,60.14
2023-09-15T19:44:50.589Z,60.29
2023-09-15T19:47:17.836Z,60.42
2023-09-15T19:49:44.986Z,60.30
2023-09-15T19:52:11.646Z,60.04
2023-09-15T19:54:38.264Z,59.88
2023-09-15T19:57:05.094Z,60.01
2023-09-15T19:59:31.664Z,59.95
2023-09-15T20:01:58.457Z,60.09
2023-09-15T20:04:25.161Z,60.31
2023-09-15T20:06:51.772Z,59.93
2023-09-15T20:09:18.929Z,60.51
2023-09-15T20:11:45.573Z,60.33
2023-09-15T20:14:12.223Z,60.40
2023-09-15T20:16:38.822Z,60.05
2023-09-15T20:19:05.725Z,59.97
2023-09-15T20:21:32.495Z,60.32
2023-09-15T20:23:59.067Z,60.13
2023-09-15T20:26:25.881Z,60.05
2023-09-15T20:28:52.432Z,59.96
2023-09-15T20:31:19.078Z,60.39
2023-09-15T20:33:45.720Z,60.32
2023-09-15T20:36:12.291Z,60.17
2023-09-15T20:38:38.869Z,60.40
2023-09-15T20:41:05.705Z,60.33
2023-09-15T20:43:32.295Z,60.26
2023-09-15T20:46:00.220Z,60.38
2023-09-15T20:48:27.061Z,60.40
2023-09-15T20:50:53.667Z,60.38
2023-09-15T20:53:20.335Z,60.29
2023-09-15T20:55:48.233Z,60.40
2023-09-15T20:58:16.514Z,60.47
2023-09-15T21:00:43.454Z,60.42
2023-09-15T21:03:10.334Z,60.55
2023-09-15T21:05:36.924Z,60.62
2023-09-15T21:08:03.892Z,60.49
2023-09-15T21:10:30.684Z,60.34
2023-09-15T21:12:58.565Z,60.56
2023-09-15T21:15:25.391Z,60.50
2023-09-15T21:17:53.158Z,60.39
2023-09-15T21:20:19.994Z,60.76
2023-09-15T21:22:46.585Z,60.39
2023-09-15T21:25:13.120Z,60.58
2023-09-15T21:27:39.765Z,60.60
2023-09-15T21:30:07.041Z,60.62
2023-09-15T21:32:33.636Z,60.52
2023-09-15T21:35:00.629Z,60.68
2023-09-15T21:37:27.657Z,60.41
2023-09-15T21:39:54.286Z,60.60
2023-09-15T21:42:21.014Z,60.45
2023-09-15T21:44:47.903Z,60.72
2023-09-15T21:47:15.381Z,60.61
2023-09-15T21:49:41.911Z,60.33
2023-09-15T21:52:08.503Z,60.61
2023-09-15T21:54:35.374Z,60.54
2023-09-15T21:57:01.976Z,60.94
2023-09-15T21:59:28.564Z,60.67
2023-09-15T22:01:55.960Z,60.73
2023-09-15T22:04:22.777Z,60.21
2023-09-15T22:06:49.368Z,60.70
2023-09-15T22:09:16.064Z,60.83
2023-09-15T22:11:42.680Z,61.07
2023-09-15T22:14:09.715Z,60.85
2023-09-15T22:16:37.114Z,60.98
2023-09-15T22:19:04.030Z,61.13
2023-09-15T22:21:30.669Z,60.96
2023-09-15T22:23:58.700Z,60.92
2023-09-15T22:26:25.413Z,60.50
2023-09-15T22:28:52.064Z,60.80
2023-09-15T22:31:18.625Z,60.77
2023-09-15T22:33:45.333Z,60.72
2023-09-15T22:36:11.897Z,61.11
2023-09-15T22:38:38.455Z,60.91
2023-09-15T22:41:16.443Z,61.13
2023-09-15T22:43:44.881Z,60.98
2023-09-15T22:46:23.579Z,61.12
2023-09-15T22:48:52.169Z,60.80
2023-09-15T22:51:18.913Z,61.04
2023-09-15T22:53:45.810Z,60.80
2023-09-15T22:56:12.412Z,61.02
2023-09-15T22:58:38.945Z,60.86
2023-09-15T23:01:06.347Z,60.71
2023-09-15T23:03:34.290Z,61.08
2023-09-15T23:06:00.908Z,60.57
2023-09-15T23:08:27.515Z,60.78
2023-09-15T23:11:01.011Z,60.72
2023-09-15T23:13:27.601Z,60.76
2023-09-15T23:16:04.700Z,60.36
2023-09-15T23:18:31.412Z,60.70
2023-09-15T23:20:57.967Z,60.48
2023-09-15T23:23:25.030Z,60.57
2023-09-15T23:25:51.595Z,60.71
2023-09-15T23:28:18.262Z,60.78
2023-09-15T23:30:44.851Z,60.47
2023-09-15T23:33:11.399Z,60.52
2023-09-15T23:35:38.000Z,60.57
2023-09-15T23:38:04.648Z,60.68
2023-09-15T23:40:31.165Z,60.41
2023-09-15T23:42:57.842Z,60.52
2023-09-15T23:45:25.568Z,60.76
2023-09-15T23:47:53.053Z,60.39
2023-09-15T23:50:20.236Z,60.80
2023-09-15T23:52:46.812Z,60.73
2023-09-15T23:55:13.378Z,60.65
2023-09-15T23:57:39.890Z,60.80
